Time;durP1;ratioP1;P1;durP2;ratioP2;P2;SDS_P1;SDS_P2;PMS_P1;PMS_P2;Temp;Humidity;BMP_temperature;BMP_pressure;BME280_temperature;BME280_humidity;BME280_pressure;Samples;Min_cycle;Max_cycle;Signal;HPM_P1;HPM_P2
2023/12/30 00:01:03;;;;;;;7.25;2.35;;;10.00;99.90;;;;;;5033485;28;20496;-46
2023/12/30 00:03:28;;;;;;;3.10;1.55;;;10.00;99.90;;;;;;5033199;28;20037;-47
2023/12/30 00:05:54;;;;;;;5.82;1.63;;;9.90;99.90;;;;;;5033139;28;20061;-47
2023/12/30 00:08:19;;;;;;;5.05;2.08;;;9.90;99.90;;;;;;5033339;28;20091;-48
2023/12/30 00:10:45;;;;;;;2.30;1.45;;;9.90;99.90;;;;;;5033208;28;20037;-45
2023/12/30 00:13:10;;;;;;;11.68;2.17;;;9.90;99.90;;;;;;5032796;28;20079;-47
2023/12/30 00:15:35;;;;;;;6.50;1.95;;;9.90;99.90;;;;;;5033201;28;20082;-44
2023/12/30 00:18:01;;;;;;;2.17;1.73;;;9.80;99.90;;;;;;5033255;28;20032;-45
2023/12/30 00:20:26;;;;;;;2.53;1.52;;;9.90;99.90;;;;;;5031728;28;20022;-46
2023/12/30 00:22:52;;;;;;;3.72;1.27;;;9.80;99.90;;;;;;5030806;28;20030;-46
2023/12/30 00:25:17;;;;;;;2.30;1.33;;;9.90;99.90;;;;;;5033102;28;20106;-49
2023/12/30 00:27:43;;;;;;;4.88;1.40;;;9.80;99.90;;;;;;5032876;28;20029;-51
2023/12/30 00:30:13;;;;;;;1.58;1.15;;;9.90;99.90;;;;;;5032817;28;20037;-46
2023/12/30 00:35:07;;;;;;;3.95;1.50;;;10.00;99.90;;;;;;5050212;23;20049;-48
2023/12/30 00:37:34;;;;;;;4.07;1.50;;;10.00;99.90;;;;;;5015463;28;20053;-46
2023/12/30 00:40:00;;;;;;;3.47;1.23;;;10.00;99.90;;;;;;5032936;28;20100;-48
2023/12/30 00:42:25;;;;;;;2.13;1.20;;;10.00;99.90;;;;;;5032380;28;20032;-48
2023/12/30 00:44:51;;;;;;;3.15;1.33;;;10.00;99.90;;;;;;5032518;28;20497;-47
2023/12/30 00:47:17;;;;;;;4.38;1.40;;;10.00;99.90;;;;;;5033173;28;20110;-46
2023/12/30 00:49:43;;;;;;;5.85;1.73;;;10.00;99.90;;;;;;5032715;28;20030;-49
2023/12/30 00:52:09;;;;;;;4.80;1.42;;;10.00;99.90;;;;;;5032288;28;20112;-49
2023/12/30 00:54:34;;;;;;;6.55;1.50;;;10.00;99.90;;;;;;5014691;28;20112;-47
2023/12/30 00:57:00;;;;;;;3.63;1.63;;;10.00;99.90;;;;;;5032620;28;20040;-49
2023/12/30 00:59:25;;;;;;;5.20;1.33;;;10.00;99.90;;;;;;5032537;28;20412;-51
2023/12/30 01:01:50;;;;;;;2.72;1.17;;;10.00;99.90;;;;;;5032764;28;20049;-47
2023/12/30 01:04:16;;;;;;;4.05;1.30;;;10.00;99.90;;;;;;5014396;28;20507;-48
2023/12/30 01:06:41;;;;;;;4.00;1.00;;;10.00;99.90;;;;;;5032373;28;20029;-49
2023/12/30 01:09:07;;;;;;;3.63;1.80;;;9.90;99.90;;;;;;5032230;28;20030;-50
2023/12/30 01:11:34;;;;;;;4.53;1.10;;;9.90;99.90;;;;;;5032187;28;20032;-49
2023/12/30 01:13:59;;;;;;;3.00;1.00;;;9.90;99.90;;;;;;5014038;28;20029;-47
2023/12/30 01:16:25;;;;;;;6.28;1.15;;;9.80;99.90;;;;;;5032322;28;20481;-49
2023/12/30 01:18:51;;;;;;;2.10;0.93;;;9.80;99.90;;;;;;5014125;28;20120;-49
2023/12/30 01:21:17;;;;;;;6.82;1.15;;;9.90;99.90;;;;;;5032021;28;20068;-50
2023/12/30 01:23:43;;;;;;;4.10;1.33;;;9.80;99.90;;;;;;5014043;28;20037;-49
2023/12/30 01:26:09;;;;;;;2.28;1.00;;;9.80;99.90;;;;;;5014313;28;20052;-52
2023/12/30 01:28:35;;;;;;;4.57;1.42;;;9.80;99.90;;;;;;5032010;28;20037;-46
2023/12/30 01:31:01;;;;;;;5.53;1.00;;;9.90;99.90;;;;;;5031695;28;20029;-53
2023/12/30 01:33:26;;;;;;;2.53;0.70;;;9.90;99.90;;;;;;5030406;28;20034;-50
2023/12/30 01:35:52;;;;;;;1.95;0.93;;;9.80;99.90;;;;;;5014202;28;20014;-49
2023/12/30 01:38:17;;;;;;;6.97;1.85;;;9.80;99.90;;;;;;5014029;28;20021;-53
2023/12/30 01:40:43;;;;;;;5.10;1.02;;;9.80;99.90;;;;;;5031758;28;20036;-51
2023/12/30 01:43:23;;;;;;;2.17;0.80;;;9.80;99.90;;;;;;5031326;28;20026;-49
2023/12/30 01:45:50;;;;;;;4.68;1.00;;;9.70;99.90;;;;;;5031649;28;20025;-49
2023/12/30 01:48:15;;;;;;;3.85;1.38;;;9.70;99.90;;;;;;5014063;28;20233;-51
2023/12/30 01:50:41;;;;;;;6.75;1.30;;;9.70;99.90;;;;;;5031620;28;20029;-51
2023/12/30 01:53:07;;;;;;;2.13;1.27;;;9.60;99.90;;;;;;5031408;28;20045;-51
2023/12/30 01:55:32;;;;;;;4.35;1.13;;;9.60;99.90;;;;;;5031855;28;20103;-48
2023/12/30 01:57:58;;;;;;;5.63;1.30;;;9.60;99.90;;;;;;5013839;28;20049;-50
2023/12/30 02:00:26;;;;;;;3.38;1.15;;;9.50;99.90;;;;;;5031371;28;20026;-52
2023/12/30 02:02:53;;;;;;;2.80;0.85;;;9.50;99.90;;;;;;5031343;28;20034;-52
2023/12/30 02:05:19;;;;;;;3.85;0.90;;;9.50;99.90;;;;;;5031484;28;20030;-51
2023/12/30 02:07:47;;;;;;;5.18;1.17;;;9.50;99.90;;;;;;5031487;28;20120;-53
2023/12/30 02:10:12;;;;;;;3.58;0.93;;;9.50;99.90;;;;;;5031420;28;20397;-52
2023/12/30 02:12:38;;;;;;;4.43;1.45;;;9.50;99.90;;;;;;5031161;28;20037;-50
2023/12/30 02:15:14;;;;;;;3.58;0.75;;;9.40;99.90;;;;;;5031188;28;20021;-50
2023/12/30 02:17:39;;;;;;;1.73;1.08;;;9.50;99.90;;;;;;5031484;28;20037;-49
2023/12/30 02:20:05;;;;;;;3.40;1.30;;;9.50;99.90;;;;;;5031420;28;20018;-47
2023/12/30 02:22:31;;;;;;;3.53;1.27;;;9.50;99.90;;;;;;5031078;28;20049;-47
2023/12/30 02:24:59;;;;;;;3.63;1.30;;;9.40;99.90;;;;;;5031189;28;20026;-47
2023/12/30 02:27:25;;;;;;;6.90;1.65;;;9.40;99.90;;;;;;5013674;28;20029;-51
2023/12/30 02:29:51;;;;;;;3.90;1.23;;;9.40;99.90;;;;;;5031235;28;20029;-51
2023/12/30 02:32:17;;;;;;;3.85;1.08;;;9.40;99.90;;;;;;5031047;28;20029;-51
2023/12/30 02:34:42;;;;;;;1.58;1.25;;;9.30;99.90;;;;;;5030990;28;20033;-50
2023/12/30 02:37:08;;;;;;;2.33;1.13;;;9.10;99.90;;;;;;5031104;28;20022;-47
2023/12/30 02:39:33;;;;;;;3.47;1.15;;;9.00;99.90;;;;;;5031153;28;20083;-50
2023/12/30 02:41:59;;;;;;;4.07;1.02;;;8.90;99.90;;;;;;5013063;28;20144;-47
2023/12/30 02:44:24;;;;;;;3.15;1.17;;;8.80;99.90;;;;;;5030837;28;20113;-47
2023/12/30 02:46:50;;;;;;;3.40;1.20;;;8.70;99.90;;;;;;5017034;28;20032;-46
2023/12/30 02:49:15;;;;;;;1.83;0.70;;;8.70;99.90;;;;;;5034862;28;20041;-48
2023/12/30 02:51:41;;;;;;;7.05;1.90;;;8.70;99.90;;;;;;5017060;28;20068;-51
2023/12/30 02:54:06;;;;;;;3.30;1.80;;;8.70;99.90;;;;;;5034643;28;20044;-50
2023/12/30 02:56:32;;;;;;;9.45;2.50;;;8.70;99.90;;;;;;5035007;28;20017;-54
2023/12/30 02:59:01;;;;;;;2.10;1.20;;;8.70;99.90;;;;;;5034869;28;20053;-49
2023/12/30 03:01:31;;;;;;;1.67;1.30;;;8.80;99.90;;;;;;5035041;28;20196;-47
2023/12/30 03:03:58;;;;;;;2.42;1.00;;;8.70;99.90;;;;;;5034319;28;20029;-48
2023/12/30 03:06:24;;;;;;;2.58;1.45;;;8.70;99.90;;;;;;5034754;28;20036;-47
2023/12/30 03:08:51;;;;;;;2.05;1.35;;;8.60;99.90;;;;;;5034662;28;20128;-49
2023/12/30 03:11:17;;;;;;;8.32;1.70;;;8.60;99.90;;;;;;5016503;28;20036;-48
2023/12/30 03:13:42;;;;;;;5.95;1.65;;;8.60;99.90;;;;;;5034138;28;20668;-47
2023/12/30 03:16:10;;;;;;;3.30;1.42;;;8.60;99.90;;;;;;5034392;28;20029;-48
2023/12/30 03:18:38;;;;;;;3.20;1.92;;;8.60;99.90;;;;;;5016570;28;20499;-48
2023/12/30 03:21:07;;;;;;;2.13;1.52;;;8.70;99.90;;;;;;5034262;28;20034;-52
2023/12/30 03:23:33;;;;;;;3.42;1.30;;;8.60;99.90;;;;;;5016221;28;20029;-52
2023/12/30 03:25:59;;;;;;;3.28;2.08;;;8.70;99.90;;;;;;5016268;28;20025;-47
2023/12/30 03:28:25;;;;;;;7.20;1.95;;;8.60;99.90;;;;;;5034126;28;20029;-49
2023/12/30 03:30:51;;;;;;;8.13;1.48;;;8.70;99.90;;;;;;5034017;28;20028;-52
2023/12/30 03:33:16;;;;;;;3.42;1.83;;;8.70;99.90;;;;;;5015860;28;20420;-51
2023/12/30 03:35:42;;;;;;;3.85;1.40;;;8.70;99.90;;;;;;5034014;28;20049;-50
2023/12/30 03:38:08;;;;;;;2.72;1.27;;;8.70;99.90;;;;;;5016185;28;20076;-50
2023/12/30 03:40:33;;;;;;;1.48;1.38;;;8.70;99.90;;;;;;5033768;28;20477;-53
2023/12/30 03:42:59;;;;;;;4.50;1.35;;;8.70;99.90;;;;;;5015713;28;20071;-49
2023/12/30 03:45:24;;;;;;;6.57;1.65;;;8.70;99.90;;;;;;5033940;28;20080;-51
2023/12/30 03:47:52;;;;;;;2.88;1.23;;;8.70;99.90;;;;;;5015995;28;20025;-48
2023/12/30 03:50:17;;;;;;;4.22;1.48;;;8.60;99.90;;;;;;5033600;28;20561;-51
2023/12/30 03:52:43;;;;;;;4.25;1.55;;;8.60;99.90;;;;;;5033449;28;20033;-52
2023/12/30 03:55:09;;;;;;;5.68;1.83;;;8.70;99.90;;;;;;5033394;28;20034;-52
2023/12/30 03:57:34;;;;;;;5.85;1.70;;;8.70;99.90;;;;;;5014753;28;20064;-53
2023/12/30 04:00:00;;;;;;;2.20;1.17;;;8.70;99.90;;;;;;5015810;28;20441;-48
2023/12/30 04:02:26;;;;;;;8.57;2.88;;;8.70;99.90;;;;;;5033197;28;20021;-52
2023/12/30 04:04:51;;;;;;;6.20;1.88;;;8.80;99.90;;;;;;5033341;28;20029;-50
2023/12/30 04:07:17;;;;;;;2.00;1.58;;;8.80;99.90;;;;;;5015661;28;20033;-52
2023/12/30 04:09:42;;;;;;;6.88;1.70;;;8.80;99.90;;;;;;5033147;28;20029;-52
2023/12/30 04:12:09;;;;;;;3.58;2.00;;;8.90;99.90;;;;;;5033080;28;20104;-52
2023/12/30 04:14:35;;;;;;;8.90;1.95;;;8.90;99.90;;;;;;5033046;28;20061;-52
2023/12/30 04:17:00;;;;;;;3.88;1.50;;;9.00;99.90;;;;;;5015395;28;20103;-50
2023/12/30 04:19:26;;;;;;;5.85;2.13;;;9.00;99.90;;;;;;5033153;28;20028;-52
2023/12/30 04:21:51;;;;;;;7.72;1.77;;;9.10;99.90;;;;;;5032961;28;20028;-49
2023/12/30 04:24:22;;;;;;;6.90;1.48;;;9.10;99.90;;;;;;5032655;28;20032;-50
2023/12/30 04:26:49;;;;;;;4.90;1.60;;;9.10;99.90;;;;;;5033023;28;20043;-52
2023/12/30 04:29:15;;;;;;;3.20;1.52;;;9.20;99.90;;;;;;5015230;28;20030;-48
2023/12/30 04:31:40;;;;;;;3.35;1.52;;;9.20;99.90;;;;;;5033352;28;20055;-50
2023/12/30 04:34:06;;;;;;;3.38;1.73;;;9.30;99.90;;;;;;5032274;28;20034;-52
2023/12/30 04:36:31;;;;;;;4.40;1.70;;;9.30;99.90;;;;;;5032761;28;20487;-53
2023/12/30 04:38:57;;;;;;;4.85;1.50;;;9.30;99.90;;;;;;5032724;28;20108;-48
2023/12/30 04:41:22;;;;;;;3.88;1.50;;;9.40;99.90;;;;;;5032949;28;20516;-48
2023/12/30 04:43:48;;;;;;;4.90;1.50;;;9.30;99.90;;;;;;5032669;28;20026;-48
2023/12/30 04:46:13;;;;;;;2.13;1.20;;;9.30;99.90;;;;;;5015014;28;20079;-48
2023/12/30 04:48:39;;;;;;;7.07;1.85;;;9.30;99.90;;;;;;5015146;28;20401;-48
2023/12/30 04:51:05;;;;;;;6.13;2.20;;;9.30;99.90;;;;;;5032633;28;20052;-46
2023/12/30 04:53:31;;;;;;;6.85;1.40;;;9.30;99.90;;;;;;5032745;28;20025;-48
2023/12/30 04:55:56;;;;;;;4.47;1.40;;;9.30;99.90;;;;;;5032662;28;20045;-51
2023/12/30 04:58:22;;;;;;;7.47;2.22;;;9.20;99.90;;;;;;5032579;28;20140;-46
2023/12/30 05:00:47;;;;;;;4.30;1.70;;;9.20;99.90;;;;;;5032611;28;20053;-47
2023/12/30 05:03:14;;;;;;;6.95;1.90;;;9.20;99.90;;;;;;5032266;28;20021;-48
2023/12/30 05:05:40;;;;;;;5.38;1.77;;;9.20;99.90;;;;;;5032531;28;20044;-46
2023/12/30 05:08:07;;;;;;;5.47;1.55;;;9.20;99.90;;;;;;5032300;28;20025;-46
2023/12/30 05:10:33;;;;;;;2.92;1.52;;;9.10;99.90;;;;;;5032385;28;20025;-50
2023/12/30 05:12:59;;;;;;;11.02;1.73;;;9.20;99.90;;;;;;5031807;28;20072;-52
2023/12/30 05:15:24;;;;;;;9.32;2.13;;;9.10;99.90;;;;;;5014345;28;20032;-48
2023/12/30 05:17:50;;;;;;;5.35;2.05;;;9.10;99.90;;;;;;5032103;28;20017;-52
2023/12/30 05:20:17;;;;;;;7.35;2.28;;;9.10;99.90;;;;;;5032012;28;20032;-51
2023/12/30 05:22:43;;;;;;;8.63;1.90;;;9.10;99.90;;;;;;5031928;28;20552;-50
2023/12/30 05:25:09;;;;;;;7.07;1.83;;;9.00;99.90;;;;;;5032622;28;20121;-47
2023/12/30 05:27:35;;;;;;;10.13;1.80;;;8.90;99.90;;;;;;5033488;28;20033;-45
2023/12/30 05:30:01;;;;;;;13.45;1.90;;;8.90;99.90;;;;;;5033002;28;20033;-52
2023/12/30 05:32:26;;;;;;;3.63;1.20;;;8.90;99.90;;;;;;5031646;28;20021;-50
2023/12/30 05:34:52;;;;;;;6.50;1.60;;;8.90;99.90;;;;;;5013978;28;20029;-48
2023/12/30 05:37:17;;;;;;;5.45;1.63;;;8.90;99.90;;;;;;5032054;28;20025;-54
2023/12/30 05:39:43;;;;;;;8.68;1.92;;;8.90;99.90;;;;;;5031790;28;20105;-51
2023/12/30 05:42:09;;;;;;;5.65;1.73;;;9.00;99.90;;;;;;5031391;28;20477;-50
2023/12/30 05:44:36;;;;;;;10.10;1.85;;;9.00;99.90;;;;;;5031871;28;20388;-48
2023/12/30 05:47:02;;;;;;;6.47;1.67;;;9.00;99.90;;;;;;5031692;28;20040;-49
2023/12/30 05:49:27;;;;;;;6.80;3.25;;;9.00;99.90;;;;;;5031630;28;20021;-51
2023/12/30 05:51:53;;;;;;;7.45;2.75;;;9.00;99.90;;;;;;5031342;28;20511;-51
2023/12/30 05:54:18;;;;;;;5.22;1.30;;;9.00;99.90;;;;;;5031283;28;20032;-48
2023/12/30 05:56:44;;;;;;;7.78;1.80;;;9.00;99.90;;;;;;5031570;28;20048;-50
2023/12/30 05:59:09;;;;;;;14.25;2.58;;;9.00;99.90;;;;;;5031675;28;20029;-51
2023/12/30 06:01:44;;;;;;;5.47;1.98;;;9.10;99.90;;;;;;5031466;28;20021;-47
2023/12/30 06:04:10;;;;;;;12.70;3.07;;;9.10;99.90;;;;;;5013800;28;20501;-51
2023/12/30 06:06:35;;;;;;;8.93;2.95;;;9.20;99.90;;;;;;5031378;28;20036;-48
2023/12/30 06:09:01;;;;;;;9.55;2.53;;;9.20;99.90;;;;;;5031396;28;20043;-48
2023/12/30 06:11:26;;;;;;;10.60;1.70;;;9.20;99.90;;;;;;5031345;28;20032;-48
2023/12/30 06:13:52;;;;;;;12.10;1.77;;;9.20;99.90;;;;;;5031037;28;20435;-47
2023/12/30 06:16:17;;;;;;;3.97;2.05;;;9.20;99.90;;;;;;5031404;28;20097;-49
2023/12/30 06:18:43;;;;;;;3.65;1.70;;;9.20;99.90;;;;;;5013812;28;20365;-53
2023/12/30 06:21:08;;;;;;;5.60;2.80;;;9.20;99.90;;;;;;5033894;28;20026;-47
2023/12/30 06:23:34;;;;;;;10.00;2.17;;;9.20;99.90;;;;;;5035634;28;20021;-47
2023/12/30 06:26:03;;;;;;;6.53;1.63;;;9.20;99.90;;;;;;5035464;28;20052;-49
2023/12/30 06:28:28;;;;;;;3.80;1.48;;;9.20;99.90;;;;;;5017524;28;20018;-47
2023/12/30 06:30:54;;;;;;;7.03;1.25;;;9.20;99.90;;;;;;5035187;28;20018;-50
2023/12/30 06:33:21;;;;;;;6.32;2.25;;;9.30;99.90;;;;;;5035134;28;20481;-51
2023/12/30 06:35:47;;;;;;;4.70;1.58;;;9.30;99.90;;;;;;5035363;28;20087;-47
2023/12/30 06:38:14;;;;;;;2.97;1.10;;;9.30;99.90;;;;;;5036223;28;20033;-47
2023/12/30 06:40:41;;;;;;;8.40;1.50;;;9.30;99.90;;;;;;5035394;28;20045;-45
2023/12/30 06:43:07;;;;;;;8.73;2.15;;;9.40;99.90;;;;;;5034796;28;20427;-47
2023/12/30 06:45:33;;;;;;;5.63;1.60;;;9.40;99.90;;;;;;5017101;28;20489;-47
2023/12/30 06:47:58;;;;;;;8.38;1.58;;;9.40;99.90;;;;;;5034933;28;20038;-47
2023/12/30 06:50:24;;;;;;;2.50;1.05;;;9.40;99.90;;;;;;5034851;28;20057;-44
2023/12/30 06:52:50;;;;;;;4.22;1.35;;;9.30;99.90;;;;;;5034555;28;20025;-47
2023/12/30 06:55:15;;;;;;;5.07;1.48;;;9.30;99.90;;;;;;5016945;28;20048;-47
2023/12/30 06:57:41;;;;;;;2.53;0.93;;;9.30;99.90;;;;;;5034917;28;20025;-46
2023/12/30 07:00:07;;;;;;;5.05;1.13;;;9.30;99.90;;;;;;5034988;28;20028;-51
2023/12/30 07:02:33;;;;;;;4.15;1.10;;;9.30;99.90;;;;;;5034768;28;20022;-52
2023/12/30 07:04:59;;;;;;;4.45;0.98;;;9.20;99.90;;;;;;5034484;28;20397;-52
2023/12/30 07:07:24;;;;;;;7.13;1.25;;;9.20;99.90;;;;;;5034687;28;20026;-52
2023/12/30 07:09:50;;;;;;;2.47;1.02;;;9.30;99.90;;;;;;5034561;28;20083;-50
2023/12/30 07:12:16;;;;;;;3.65;1.17;;;9.20;99.90;;;;;;5034273;28;20029;-47
2023/12/30 07:14:42;;;;;;;2.90;0.88;;;9.30;99.90;;;;;;5034241;28;20114;-49
2023/12/30 07:17:07;;;;;;;2.97;0.77;;;9.20;99.90;;;;;;5034342;28;20074;-48
2023/12/30 07:19:33;;;;;;;2.67;1.10;;;9.20;99.90;;;;;;5034411;28;20025;-53
2023/12/30 07:21:59;;;;;;;2.72;1.13;;;9.30;99.90;;;;;;5034106;28;20092;-52
2023/12/30 07:24:25;;;;;;;9.63;1.48;;;9.20;99.90;;;;;;5034338;28;20049;-49
2023/12/30 07:26:50;;;;;;;4.85;1.40;;;9.20;99.90;;;;;;5034765;28;20032;-48
2023/12/30 07:29:16;;;;;;;3.72;1.08;;;9.20;99.90;;;;;;5034180;28;20029;-48
2023/12/30 07:31:41;;;;;;;7.47;2.03;;;9.20;99.90;;;;;;5034045;28;20481;-50
2023/12/30 07:34:07;;;;;;;4.10;1.27;;;9.20;99.90;;;;;;5015920;28;20026;-50
2023/12/30 07:36:33;;;;;;;5.13;1.42;;;9.20;99.90;;;;;;5034220;28;20041;-49
2023/12/30 07:38:58;;;;;;;3.95;1.58;;;9.20;99.90;;;;;;5033961;28;20511;-50
2023/12/30 07:41:24;;;;;;;7.53;2.50;;;9.20;99.90;;;;;;5033957;28;20036;-50
2023/12/30 07:43:49;;;;;;;3.97;1.50;;;9.20;99.90;;;;;;5033685;28;20103;-48
2023/12/30 07:46:15;;;;;;;10.05;1.70;;;9.30;99.90;;;;;;5033880;28;20477;-47
2023/12/30 07:48:41;;;;;;;5.93;1.55;;;9.30;99.90;;;;;;5033715;28;20438;-47
2023/12/30 07:51:07;;;;;;;10.95;2.65;;;9.30;99.90;;;;;;5033849;28;20568;-47
2023/12/30 07:53:33;;;;;;;4.57;1.60;;;9.30;99.90;;;;;;5033325;28;20073;-47
2023/12/30 07:55:58;;;;;;;5.03;1.88;;;9.30;99.90;;;;;;5033595;28;20055;-47
2023/12/30 07:58:24;;;;;;;6.40;1.80;;;9.30;99.90;;;;;;5015849;28;20543;-47
2023/12/30 08:00:49;;;;;;;8.57;3.10;;;9.30;99.90;;;;;;5033319;28;20100;-47
2023/12/30 08:03:15;;;;;;;11.68;2.15;;;9.30;99.90;;;;;;5015368;28;20095;-50
2023/12/30 08:05:40;;;;;;;7.50;2.58;;;9.30;99.90;;;;;;5033445;28;20025;-47
2023/12/30 08:08:08;;;;;;;7.10;1.67;;;9.20;99.90;;;;;;5033475;28;20025;-44
2023/12/30 08:10:34;;;;;;;8.32;2.80;;;9.30;99.90;;;;;;5033231;28;20124;-47
2023/12/30 08:13:00;;;;;;;6.65;2.45;;;9.30;99.90;;;;;;5033059;28;20029;-46
2023/12/30 08:15:25;;;;;;;6.22;2.30;;;9.30;99.90;;;;;;5033314;28;20033;-51
2023/12/30 08:17:51;;;;;;;12.25;3.00;;;9.30;99.90;;;;;;5015452;28;20021;-50
2023/12/30 08:20:17;;;;;;;6.30;2.05;;;9.40;99.90;;;;;;5015599;28;20029;-46
2023/12/30 08:22:43;;;;;;;6.93;2.58;;;9.30;99.90;;;;;;5015203;28;20025;-47
2023/12/30 08:25:08;;;;;;;8.55;2.10;;;9.40;99.90;;;;;;5033361;28;20063;-50
2023/12/30 08:27:34;;;;;;;10.68;2.95;;;9.40;99.90;;;;;;5033318;28;20029;-51
2023/12/30 08:30:00;;;;;;;14.50;2.60;;;9.50;99.90;;;;;;5033194;28;20079;-52
2023/12/30 08:32:26;;;;;;;12.32;2.53;;;9.50;99.90;;;;;;5032928;28;20033;-53
2023/12/30 08:34:54;;;;;;;3.15;1.90;;;9.60;99.90;;;;;;5032739;28;20029;-48
2023/12/30 08:37:19;;;;;;;4.65;2.78;;;9.60;99.90;;;;;;5033114;28;20083;-51
2023/12/30 08:39:45;;;;;;;10.82;2.45;;;9.70;99.90;;;;;;5032936;28;20018;-50
2023/12/30 08:42:11;;;;;;;4.32;2.00;;;9.70;99.90;;;;;;5032601;28;20017;-51
2023/12/30 08:44:40;;;;;;;8.70;2.72;;;9.70;99.90;;;;;;5033785;28;20629;-47
2023/12/30 08:47:06;;;;;;;14.82;3.13;;;9.80;99.90;;;;;;5033703;28;20037;-49
2023/12/30 08:49:32;;;;;;;6.93;2.50;;;9.80;99.90;;;;;;5014959;28;20505;-47
2023/12/30 08:51:58;;;;;;;8.85;2.30;;;9.90;99.90;;;;;;5032200;28;20040;-50
2023/12/30 08:54:24;;;;;;;8.93;2.80;;;10.00;99.90;;;;;;5032009;28;20013;-52
2023/12/30 08:56:53;;;;;;;6.55;1.90;;;10.20;99.90;;;;;;5032449;28;20041;-54
2023/12/30 08:59:19;;;;;;;5.05;1.63;;;10.30;99.90;;;;;;5014957;28;20022;-51
2023/12/30 09:01:45;;;;;;;4.78;1.77;;;10.40;99.90;;;;;;5014542;28;20022;-50
2023/12/30 09:04:10;;;;;;;11.27;2.08;;;10.50;99.90;;;;;;5031648;28;20029;-47
2023/12/30 09:06:36;;;;;;;7.03;2.13;;;10.60;99.90;;;;;;5032964;28;20100;-44
2023/12/30 09:09:03;;;;;;;7.22;2.13;;;10.70;99.90;;;;;;5032753;28;20021;-49
2023/12/30 09:11:32;;;;;;;5.28;1.85;;;10.70;99.90;;;;;;5032515;28;20108;-50
2023/12/30 09:13:58;;;;;;;6.10;1.70;;;10.80;99.90;;;;;;5032442;28;20022;-49
2023/12/30 09:16:23;;;;;;;5.63;2.15;;;10.70;99.90;;;;;;5032473;28;20033;-48
2023/12/30 09:18:49;;;;;;;4.07;1.70;;;10.80;99.90;;;;;;5032582;28;20112;-47
2023/12/30 09:21:14;;;;;;;9.30;2.22;;;10.70;99.90;;;;;;5014385;28;20021;-46
2023/12/30 09:23:40;;;;;;;1.98;1.73;;;10.70;99.90;;;;;;5032235;28;20026;-51
2023/12/30 09:26:06;;;;;;;8.38;2.30;;;10.70;99.90;;;;;;5032315;28;20021;-52
2023/12/30 09:28:32;;;;;;;9.27;2.78;;;10.80;99.90;;;;;;5032331;28;20031;-48
2023/12/30 09:30:57;;;;;;;6.43;2.03;;;10.80;99.90;;;;;;5031939;28;20509;-47
2023/12/30 09:33:23;;;;;;;9.13;2.08;;;10.90;99.90;;;;;;5031988;28;20044;-56
2023/12/30 09:35:54;;;;;;;8.38;2.15;;;11.10;99.90;;;;;;5014313;28;20457;-51
2023/12/30 09:38:23;;;;;;;6.55;2.20;;;11.30;99.90;;;;;;5032135;28;20018;-54
2023/12/30 09:40:52;;;;;;;6.18;2.58;;;11.20;99.90;;;;;;5032851;28;20032;-53
2023/12/30 09:43:23;;;;;;;7.40;2.40;;;11.30;99.90;;;;;;5031650;28;20025;-49
2023/12/30 09:45:50;;;;;;;8.82;2.10;;;11.40;99.90;;;;;;5031842;28;20029;-48
2023/12/30 09:48:25;;;;;;;7.45;2.00;;;11.60;99.90;;;;;;5031590;28;20097;-49
2023/12/30 09:50:51;;;;;;;11.07;2.63;;;11.70;99.90;;;;;;5032674;28;20400;-49
2023/12/30 09:53:17;;;;;;;4.35;1.92;;;11.90;99.90;;;;;;5031638;28;20033;-52
2023/12/30 09:55:46;;;;;;;11.25;1.98;;;11.90;99.90;;;;;;5031055;28;20677;-51
2023/12/30 09:58:13;;;;;;;8.38;2.03;;;11.90;99.90;;;;;;5031819;28;20029;-48
2023/12/30 10:00:45;;;;;;;8.02;2.55;;;12.00;99.90;;;;;;5031724;28;20034;-50
2023/12/30 10:03:11;;;;;;;8.30;3.40;;;12.10;99.90;;;;;;5030830;28;20033;-48
2023/12/30 10:05:37;;;;;;;12.65;2.33;;;12.00;99.90;;;;;;5031110;28;20041;-48
2023/12/30 10:08:06;;;;;;;14.40;2.92;;;12.00;99.90;;;;;;5031056;28;20447;-51
2023/12/30 10:10:52;;;;;;;5.25;1.70;;;12.20;99.90;;;;;;5032331;28;20113;-52
2023/12/30 10:13:21;;;;;;;;;;;12.40;99.90;;;;;;5013337;28;20029;-54
2023/12/30 10:15:47;;;;;;;8.77;2.00;;;12.50;99.90;;;;;;5030791;28;19920;-51
2023/12/30 10:18:15;;;;;;;5.47;2.17;;;12.50;99.90;;;;;;5031517;28;20037;-52
2023/12/30 10:20:42;;;;;;;5.45;2.20;;;12.30;99.90;;;;;;5031078;28;20048;-53
2023/12/30 10:23:07;;;;;;;6.00;2.25;;;12.20;99.90;;;;;;5031128;28;20060;-50
2023/12/30 10:25:34;;;;;;;6.57;1.85;;;12.00;99.90;;;;;;5032491;28;20033;-51
2023/12/30 10:28:00;;;;;;;7.60;1.70;;;12.00;99.90;;;;;;5031342;28;20563;-52
2023/12/30 10:30:26;;;;;;;8.52;1.95;;;11.90;99.90;;;;;;5031739;28;20266;-54
2023/12/30 10:32:51;;;;;;;3.95;2.33;;;11.90;99.90;;;;;;5012910;28;20505;-53
2023/12/30 10:35:17;;;;;;;6.70;2.30;;;11.90;99.90;;;;;;5013363;28;20564;-53
2023/12/30 10:37:43;;;;;;;5.90;1.65;;;11.80;99.90;;;;;;5030932;28;20032;-53
2023/12/30 10:40:09;;;;;;;5.82;1.88;;;11.70;99.90;;;;;;5031025;28;20018;-51
2023/12/30 10:42:36;;;;;;;9.45;2.10;;;11.60;99.90;;;;;;5013389;28;20411;-53
2023/12/30 10:45:01;;;;;;;5.25;1.67;;;11.50;99.90;;;;;;5031186;28;20579;-52
2023/12/30 10:47:28;;;;;;;5.80;1.85;;;11.50;99.90;;;;;;5032136;28;20048;-57
2023/12/30 10:49:58;;;;;;;6.43;1.73;;;11.40;99.90;;;;;;5013885;28;20453;-55
2023/12/30 10:52:26;;;;;;;5.85;2.22;;;11.30;99.90;;;;;;5030968;28;20116;-50
2023/12/30 10:55:04;;;;;;;8.95;1.88;;;11.30;99.90;;;;;;5030719;28;20021;-57
2023/12/30 10:57:31;;;;;;;7.78;1.80;;;11.30;99.90;;;;;;5011422;28;20440;-52
2023/12/30 10:59:58;;;;;;;6.30;2.33;;;11.20;99.90;;;;;;5011225;28;20018;-56
2023/12/30 11:02:24;;;;;;;6.68;1.83;;;11.20;99.90;;;;;;5013070;28;20089;-55
2023/12/30 11:04:51;;;;;;;8.52;2.67;;;11.30;99.90;;;;;;5031821;28;20048;-53
2023/12/30 11:07:20;;;;;;;7.13;2.45;;;11.40;99.90;;;;;;5034099;28;20038;-58
2023/12/30 11:09:47;;;;;;;4.75;1.80;;;11.40;99.90;;;;;;5017079;28;20021;-56
2023/12/30 11:12:13;;;;;;;9.00;2.42;;;11.50;99.90;;;;;;5034376;28;20087;-53
2023/12/30 11:14:38;;;;;;;13.07;2.83;;;11.50;99.90;;;;;;5037564;28;20029;-55
2023/12/30 11:17:04;;;;;;;6.18;2.22;;;11.50;99.90;;;;;;5054792;28;20052;-62
2023/12/30 11:19:33;;;;;;;5.35;1.63;;;11.60;99.90;;;;;;5032528;28;20493;-54
2023/12/30 11:22:00;;;;;;;8.13;2.28;;;11.60;99.90;;;;;;5033869;28;20029;-55
2023/12/30 11:24:26;;;;;;;7.57;2.38;;;11.60;99.90;;;;;;5034032;28;20028;-57
2023/12/30 11:26:54;;;;;;;7.15;1.65;;;11.70;99.90;;;;;;5034226;28;20164;-56
2023/12/30 11:29:25;;;;;;;4.20;1.25;;;11.60;99.90;;;;;;5031357;28;20350;-58
2023/12/30 11:31:52;;;;;;;3.53;1.55;;;11.60;99.90;;;;;;5013733;28;20033;-56
2023/12/30 11:34:19;;;;;;;6.45;2.58;;;11.70;99.90;;;;;;5032316;28;20037;-56
2023/12/30 11:36:46;;;;;;;4.75;1.48;;;11.70;99.90;;;;;;5033145;28;20581;-59
2023/12/30 11:39:17;;;;;;;5.57;1.95;;;11.70;99.90;;;;;;5033678;28;20061;-56
2023/12/30 11:41:43;;;;;;;4.22;2.03;;;11.70;99.90;;;;;;5033500;28;20036;-58
2023/12/30 11:44:09;;;;;;;10.40;3.20;;;11.80;99.90;;;;;;5033483;28;20397;-57
2023/12/30 11:46:34;;;;;;;5.72;1.70;;;11.90;99.90;;;;;;5033940;28;20061;-58
2023/12/30 11:49:00;;;;;;;7.90;1.90;;;12.00;99.90;;;;;;5034212;28;20026;-57
2023/12/30 11:51:30;;;;;;;4.32;1.40;;;12.00;99.90;;;;;;5034213;28;20089;-59
2023/12/30 11:53:56;;;;;;;7.15;1.90;;;12.00;99.90;;;;;;5033538;28;20021;-53
2023/12/30 11:56:23;;;;;;;8.65;2.22;;;11.90;99.90;;;;;;5032017;28;20032;-58
2023/12/30 11:58:50;;;;;;;11.30;2.35;;;11.90;99.90;;;;;;5033752;28;20072;-55
2023/12/30 12:01:17;;;;;;;8.13;3.00;;;11.80;99.90;;;;;;5033310;28;20017;-55
2023/12/30 12:03:43;;;;;;;7.03;1.75;;;11.60;99.90;;;;;;5015298;28;20026;-55
2023/12/30 12:06:09;;;;;;;3.30;1.52;;;11.50;99.90;;;;;;5033509;28;20036;-59
2023/12/30 12:08:35;;;;;;;4.05;1.85;;;11.50;99.90;;;;;;5033467;28;20022;-49
2023/12/30 12:11:00;;;;;;;10.07;2.17;;;11.40;99.90;;;;;;5015649;28;20485;-60
2023/12/30 12:13:26;;;;;;;9.38;3.03;;;11.40;99.90;;;;;;5033580;28;20022;-59
2023/12/30 12:15:53;;;;;;;5.50;1.80;;;11.30;99.90;;;;;;5033484;28;20060;-59
2023/12/30 12:18:20;;;;;;;3.70;1.83;;;11.40;99.90;;;;;;5032201;28;20021;-57
2023/12/30 12:20:46;;;;;;;3.15;1.90;;;11.40;99.90;;;;;;5032964;28;20032;-55
2023/12/30 12:23:12;;;;;;;8.30;1.98;;;11.40;99.90;;;;;;5014959;28;20401;-56
2023/12/30 12:25:38;;;;;;;7.13;3.08;;;11.40;99.90;;;;;;5033591;28;20037;-59
2023/12/30 12:28:11;;;;;;;23.23;11.80;;;11.40;99.90;;;;;;5015409;28;20029;-57
2023/12/30 12:30:37;;;;;;;6.38;2.33;;;11.30;99.90;;;;;;5032934;28;20109;-55
2023/12/30 12:33:04;;;;;;;6.60;1.95;;;11.30;99.90;;;;;;5032589;28;20065;-54
2023/12/30 12:35:30;;;;;;;7.35;1.90;;;11.30;99.90;;;;;;5053455;23;20049;-48
2023/12/30 12:37:57;;;;;;;8.90;2.15;;;11.30;99.90;;;;;;5032786;28;20022;-51
2023/12/30 12:40:22;;;;;;;8.63;1.75;;;11.30;99.90;;;;;;5032893;28;20028;-50
2023/12/30 12:42:48;;;;;;;9.18;2.60;;;11.30;99.90;;;;;;5014525;28;20025;-51
2023/12/30 12:45:13;;;;;;;6.32;2.05;;;11.30;99.90;;;;;;5014530;28;20025;-55
2023/12/30 12:47:39;;;;;;;5.28;2.13;;;11.30;99.90;;;;;;5032755;28;20024;-55
2023/12/30 12:50:06;;;;;;;4.38;2.42;;;11.30;99.90;;;;;;5032237;28;20032;-54